EW8436 Weather Reports


Display with metric or nautical units.
time (UTC)temp
F
wind
direction
speed
MPH
gust
MPH
rain 1hr
in
rain 24hr
in
rain mn
in
humidity
%
barometer
mb
20191016123002 45 327 5.0 10.0 0.00 0.28 0.28 92 1005.2
20191016121710 45 304 6.0 14.0 0.00 0.28 0.28 93 1004.8
20191016120226 45 285 4.0 10.0 0.00 0.28 0.28 93 1004.8
20191016114652 45 321 5.0 11.0 0.01 0.28 0.28 93 1004.6
20191016113235 45 298 3.0 11.0 0.03 0.28 0.28 93 1004.5
20191016111639 45 284 1.0 10.0 0.08 0.28 0.28 93 1004.4
20191016110200 45 296 5.0 8.0 0.08 0.28 0.28 93 1004.2
20191016104640 46 319 6.0 12.0 0.07 0.27 0.27 92 1003.8
20191016103147 46 273 3.0 8.0 0.06 0.25 0.25 92 1004.7
20191016101713 46 321 3.0 11.0 0.08 0.20 0.20 92 1004.6
20191016100137 46 329 4.0 12.0 0.09 0.20 0.20 91 1004.1
20191016094617 47 346 5.0 14.0 0.11 0.20 0.20 91 1004.3
20191016093131 48 328 10.0 21.0 0.18 0.19 0.19 90 1004.1
20191016091553 50 345 10.0 25.0 0.11 0.12 0.12 90 1004.3
20191016090106 51 304 8.0 21.0 0.10 0.11 0.11 91 1003.9
20191016084615 53 309 10.0 20.0 0.08 0.09 0.09 88 1003.3
20191016083109 60 247 1.0 8.0 0.00 0.01 0.01 93 1002.3
20191016081532 60 234 2.0 7.0 0.00 0.01 0.01 93 1002.6
20191016080041 60 247 2.0 5.0 0.00 0.01 0.01 93 1002.9
20191016074538 60 231 2.0 6.0 0.00 0.01 0.01 92 1003.2
20191016073023 60 207 3.0 8.0 0.00 0.01 0.01 92 1003.7
20191016071516 60 227 2.0 6.0 0.00 0.01 0.01 92 1004.2
20191016070015 60 239 1.0 7.0 0.00 0.01 0.01 92 1004.4
20191016064505 60 223 3.0 6.0 0.00 0.01 0.01 91 1004.7
20191016063005 60 246 2.0 8.0 0.01 0.01 0.01 91 1004.9
20191016061504 61 237 2.0 9.0 0.01 0.01 0.01 90 1005.0
20191016060259 61 229 4.0 9.0 0.01 0.01 0.01 89 1005.5
20191016054745 62 265 4.0 11.0 0.01 0.01 0.01 86 1005.6
20191016053113 63 217 3.0 8.0 0.00 0.00 0.00 81 1005.1
20191016051740 64 232 4.0 9.0 0.00 0.00 0.00 79 1005.6
20191016050136 64 224 5.0 9.0 0.00 0.00 0.00 78 1005.4
20191016044618 63 209 5.0 9.0 0.00 0.00 0.00 79 1005.4
20191016043132 63 227 4.0 13.0 0.00 0.00 0.00 79 1005.7
20191016041614 62 219 4.0 8.0 0.00 0.00 0.00 78 1005.8
20191016040145 62 215 3.0 11.0 0.00 0.00 0.00 77 1006.0
20191016034550 62 235 4.0 11.0 0.00 0.00 0.00 77 1006.3
20191016033123 62 173 4.0 9.0 0.00 0.00 0.00 77 1006.4
20191016031615 62 207 4.0 9.0 0.00 0.00 0.00 76 1006.4
20191016030107 62 244 4.0 9.0 0.00 0.00 0.00 76 1006.7
20191016024625 62 215 1.0 7.0 0.00 0.00 0.00 75 1007.0
20191016023156 62 205 3.0 7.0 0.00 0.00 0.00 74 1007.2
20191016021535 63 207 3.0 7.0 0.00 0.00 0.00 72 1007.4
20191016020130 63 209 2.0 7.0 0.00 0.00 0.00 70 1007.4
20191016014600 64 209 1.0 6.0 0.00 0.00 0.00 68 1007.4
20191016013114 64 223 2.0 7.0 0.00 0.00 0.00 66 1007.6
20191016011530 64 193 2.0 7.0 0.00 0.00 0.00 66 1008.0
20191016010023 64 213 4.0 7.0 0.00 0.00 0.00 66 1008.3
20191016004526 64 242 2.0 6.0 0.00 0.00 0.00 66 1008.5
20191016003027 63 204 2.0 5.0 0.00 0.00 0.00 66 1008.3
20191016001528 63 190 1.0 2.0 0.00 0.00 0.00 66 1008.4
20191016000020 63 190 0.0 0.0 0.00 0.00 0.00 65 1008.4
20191015234533 64 190 0.0 0.0 0.00 0.00 0.00 63 1008.4
20191015233015 65 189 0.0 2.0 0.00 0.00 0.00 61 1008.4
20191015231510 66 189 1.0 5.0 0.00 0.00 0.00 60 1008.5
20191015230031 67 196 2.0 7.0 0.00 0.00 0.00 58 1008.7
20191015224508 69 241 1.0 6.0 0.00 0.00 0.00 56 1008.8
20191015223026 70 242 3.0 9.0 0.00 0.00 0.00 54 1008.9
20191015221505 70 240 6.0 14.0 0.00 0.00 0.00 53 1009.0
20191015220003 71 238 5.0 14.0 0.00 0.00 0.00 50 1009.0
20191015214501 72 238 6.0 18.0 0.00 0.00 0.00 46 1009.0
20191015213213 73 229 6.0 14.0 0.00 0.00 0.00 44 1008.9
20191015211640 73 221 5.0 12.0 0.00 0.00 0.00 42 1008.9
20191015210253 73 198 6.0 18.0 0.00 0.00 0.00 42 1009.1
20191015204640 73 202 6.0 12.0 0.00 0.00 0.00 41 1009.3
20191015203152 73 194 8.0 15.0 0.00 0.00 0.00 41 1009.4
20191015201714 73 236 6.0 12.0 0.00 0.00 0.00 40 1009.6
20191015200200 73 172 8.0 16.0 0.00 0.00 0.00 40 1009.7
20191015194623 73 204 7.0 18.0 0.00 0.00 0.00 40 1010.1
20191015193202 73 188 8.0 16.0 0.00 0.00 0.00 40 1010.4
20191015191629 73 219 7.0 18.0 0.00 0.00 0.00 39 1010.7
20191015190136 73 159 5.0 10.0 0.00 0.00 0.00 38 1011.0
20191015184554 72 170 5.0 15.0 0.00 0.00 0.00 36 1011.2
20191015183109 72 176 4.0 13.0 0.00 0.00 0.00 38 1011.6
20191015181606 72 165 5.0 15.0 0.00 0.00 0.00 37 1012.0
20191015180027 71 189 5.0 13.0 0.00 0.00 0.00 37 1012.3
20191015174538 71 171 5.0 11.0 0.00 0.00 0.00 37 1012.7
20191015173041 71 196 4.0 10.0 0.00 0.00 0.00 39 1013.2
20191015171514 69 168 5.0 14.0 0.00 0.00 0.00 39 1013.6
20191015170009 69 186 4.0 10.0 0.00 0.00 0.00 39 1014.0
20191015164522 68 211 4.0 9.0 0.00 0.00 0.00 41 1014.2
20191015163011 67 197 6.0 13.0 0.00 0.00 0.00 42 1014.6
20191015161729 67 250 5.0 12.0 0.00 0.00 0.00 42 1014.8
20191015160242 66 247 4.0 10.0 0.00 0.00 0.00 41 1015.3
20191015154643 65 178 4.0 13.0 0.00 0.00 0.00 42 1015.4
20191015153212 64 227 4.0 8.0 0.00 0.00 0.00 42 1015.7
20191015151613 63 226 5.0 10.0 0.00 0.00 0.00 43 1016.1
20191015150121 63 165 3.0 7.0 0.00 0.00 0.00 45 1016.4
20191015144610 61 221 3.0 6.0 0.00 0.00 0.00 50 1016.6
20191015143056 59 192 1.0 6.0 0.00 0.00 0.00 55 1016.6
20191015141648 57 184 1.0 5.0 0.00 0.00 0.00 59 1016.9
20191015140032 54 159 1.0 6.0 0.00 0.00 0.00 65 1017.0
20191015134542 51 112 0.0 6.0 0.00 0.00 0.00 72 1017.1
20191015133056 49 92 1.0 5.0 0.00 0.00 0.00 76 1017.2
20191015131612 47 126 1.0 2.0 0.00 0.00 0.00 79 1017.1
20191015130008 45 126 1.0 4.0 0.00 0.00 0.00 82 1017.2
20191015124507 43 111 1.0 5.0 0.00 0.00 0.00 84 1017.2